sensor_id;sensor_type;location;lat;lon;timestamp;temperature;humidity
15103;DHT22;7652;53.584;9.998;2023-09-07T00:02:21;20.50;99.90
15103;DHT22;7652;53.584;9.998;2023-09-07T00:05:58;20.40;99.90
15103;DHT22;7652;53.584;9.998;2023-09-07T00:09:20;20.40;99.90
15103;DHT22;7652;53.584;9.998;2023-09-07T00:12:42;20.40;99.90
15103;DHT22;7652;53.584;9.998;2023-09-07T00:16:05;20.40;99.90
15103;DHT22;7652;53.584;9.998;2023-09-07T00:19:27;20.30;99.90
15103;DHT22;7652;53.584;9.998;2023-09-07T00:22:52;20.30;99.90
15103;DHT22;7652;53.584;9.998;2023-09-07T00:26:13;20.30;99.90
15103;DHT22;7652;53.584;9.998;2023-09-07T00:29:35;20.20;99.90
15103;DHT22;7652;53.584;9.998;2023-09-07T00:32:58;20.20;99.90
15103;DHT22;7652;53.584;9.998;2023-09-07T00:36:19;20.20;99.90
15103;DHT22;7652;53.584;9.998;2023-09-07T00:39:41;20.20;99.90
15103;DHT22;7652;53.584;9.998;2023-09-07T00:43:03;20.20;99.90
15103;DHT22;7652;53.584;9.998;2023-09-07T00:46:24;20.20;99.90
15103;DHT22;7652;53.584;9.998;2023-09-07T00:49:48;20.20;99.90
15103;DHT22;7652;53.584;9.998;2023-09-07T00:53:10;20.10;99.90
15103;DHT22;7652;53.584;9.998;2023-09-07T00:56:32;20.10;99.90
15103;DHT22;7652;53.584;9.998;2023-09-07T00:59:54;20.10;99.90
15103;DHT22;7652;53.584;9.998;2023-09-07T01:03:16;20.00;99.90
15103;DHT22;7652;53.584;9.998;2023-09-07T01:06:42;20.00;99.90
15103;DHT22;7652;53.584;9.998;2023-09-07T01:10:06;20.00;99.90
15103;DHT22;7652;53.584;9.998;2023-09-07T01:13:29;19.90;99.90
15103;DHT22;7652;53.584;9.998;2023-09-07T01:16:51;19.90;99.90
15103;DHT22;7652;53.584;9.998;2023-09-07T01:20:13;19.80;99.90
15103;DHT22;7652;53.584;9.998;2023-09-07T01:23:40;19.70;99.90
15103;DHT22;7652;53.584;9.998;2023-09-07T01:27:03;19.70;99.90
15103;DHT22;7652;53.584;9.998;2023-09-07T01:30:27;19.70;99.90
15103;DHT22;7652;53.584;9.998;2023-09-07T01:33:49;19.70;99.90
15103;DHT22;7652;53.584;9.998;2023-09-07T01:37:10;19.70;99.90
15103;DHT22;7652;53.584;9.998;2023-09-07T01:40:33;19.70;99.90
15103;DHT22;7652;53.584;9.998;2023-09-07T01:43:55;19.70;99.90
15103;DHT22;7652;53.584;9.998;2023-09-07T01:47:16;19.70;99.90
15103;DHT22;7652;53.584;9.998;2023-09-07T01:50:39;19.70;99.90
15103;DHT22;7652;53.584;9.998;2023-09-07T01:54:00;19.60;99.90
15103;DHT22;7652;53.584;9.998;2023-09-07T01:57:23;19.60;99.90
15103;DHT22;7652;53.584;9.998;2023-09-07T02:00:45;19.60;99.90
15103;DHT22;7652;53.584;9.998;2023-09-07T02:04:06;19.60;99.90
15103;DHT22;7652;53.584;9.998;2023-09-07T02:07:28;19.60;99.90
15103;DHT22;7652;53.584;9.998;2023-09-07T02:10:49;19.60;99.90
15103;DHT22;7652;53.584;9.998;2023-09-07T02:14:12;19.60;99.90
15103;DHT22;7652;53.584;9.998;2023-09-07T02:17:34;19.60;99.90
15103;DHT22;7652;53.584;9.998;2023-09-07T02:21:01;19.50;99.90
15103;DHT22;7652;53.584;9.998;2023-09-07T02:24:22;19.50;99.90
15103;DHT22;7652;53.584;9.998;2023-09-07T02:27:44;19.50;99.90
15103;DHT22;7652;53.584;9.998;2023-09-07T02:31:07;19.50;99.90
15103;DHT22;7652;53.584;9.998;2023-09-07T02:34:29;19.40;99.90
15103;DHT22;7652;53.584;9.998;2023-09-07T02:37:51;19.40;99.90
15103;DHT22;7652;53.584;9.998;2023-09-07T02:41:13;19.40;99.90
15103;DHT22;7652;53.584;9.998;2023-09-07T02:44:35;19.30;99.90
15103;DHT22;7652;53.584;9.998;2023-09-07T02:47:58;19.20;99.90
15103;DHT22;7652;53.584;9.998;2023-09-07T02:51:19;19.20;99.90
15103;DHT22;7652;53.584;9.998;2023-09-07T02:54:41;19.20;99.90
15103;DHT22;7652;53.584;9.998;2023-09-07T02:58:03;19.20;99.90
15103;DHT22;7652;53.584;9.998;2023-09-07T03:01:24;19.10;99.90
15103;DHT22;7652;53.584;9.998;2023-09-07T03:04:47;19.10;99.90
15103;DHT22;7652;53.584;9.998;2023-09-07T03:08:09;19.00;99.90
15103;DHT22;7652;53.584;9.998;2023-09-07T03:11:31;19.00;99.90
15103;DHT22;7652;53.584;9.998;2023-09-07T03:14:54;18.90;99.90
15103;DHT22;7652;53.584;9.998;2023-09-07T03:18:15;18.90;99.90
15103;DHT22;7652;53.584;9.998;2023-09-07T03:21:38;18.90;99.90
15103;DHT22;7652;53.584;9.998;2023-09-07T03:25:00;18.90;99.90
15103;DHT22;7652;53.584;9.998;2023-09-07T03:28:22;18.90;99.90
15103;DHT22;7652;53.584;9.998;2023-09-07T03:31:43;18.90;99.90
15103;DHT22;7652;53.584;9.998;2023-09-07T03:35:06;18.90;99.90
15103;DHT22;7652;53.584;9.998;2023-09-07T03:38:30;18.80;99.90
15103;DHT22;7652;53.584;9.998;2023-09-07T03:41:52;18.80;99.90
15103;DHT22;7652;53.584;9.998;2023-09-07T03:45:14;18.80;99.90
15103;DHT22;7652;53.584;9.998;2023-09-07T03:48:35;18.70;99.90
15103;DHT22;7652;53.584;9.998;2023-09-07T03:52:00;18.70;99.90
15103;DHT22;7652;53.584;9.998;2023-09-07T03:55:23;18.70;99.90
15103;DHT22;7652;53.584;9.998;2023-09-07T03:58:45;18.70;99.90
15103;DHT22;7652;53.584;9.998;2023-09-07T04:02:07;18.70;99.90
15103;DHT22;7652;53.584;9.998;2023-09-07T04:05:29;18.60;99.90
15103;DHT22;7652;53.584;9.998;2023-09-07T04:08:51;18.70;99.90
15103;DHT22;7652;53.584;9.998;2023-09-07T04:12:13;18.70;99.90
15103;DHT22;7652;53.584;9.998;2023-09-07T04:15:41;18.60;99.90
15103;DHT22;7652;53.584;9.998;2023-09-07T04:19:04;18.60;99.90
15103;DHT22;7652;53.584;9.998;2023-09-07T04:22:26;18.50;99.90
15103;DHT22;7652;53.584;9.998;2023-09-07T04:25:47;18.50;99.90
15103;DHT22;7652;53.584;9.998;2023-09-07T04:29:10;18.50;99.90
15103;DHT22;7652;53.584;9.998;2023-09-07T04:32:32;18.50;99.90
15103;DHT22;7652;53.584;9.998;2023-09-07T04:35:54;18.50;99.90
15103;DHT22;7652;53.584;9.998;2023-09-07T04:39:16;18.50;99.90
15103;DHT22;7652;53.584;9.998;2023-09-07T04:42:37;18.50;99.90
15103;DHT22;7652;53.584;9.998;2023-09-07T04:46:00;18.40;99.90
15103;DHT22;7652;53.584;9.998;2023-09-07T04:49:22;18.40;99.90
15103;DHT22;7652;53.584;9.998;2023-09-07T04:52:44;18.40;99.90
15103;DHT22;7652;53.584;9.998;2023-09-07T04:56:07;18.40;99.90
15103;DHT22;7652;53.584;9.998;2023-09-07T04:59:29;18.40;99.90
15103;DHT22;7652;53.584;9.998;2023-09-07T05:02:51;18.40;99.90
15103;DHT22;7652;53.584;9.998;2023-09-07T05:06:13;18.30;99.90
15103;DHT22;7652;53.584;9.998;2023-09-07T05:09:35;18.30;99.90
15103;DHT22;7652;53.584;9.998;2023-09-07T05:12:56;18.30;99.90
15103;DHT22;7652;53.584;9.998;2023-09-07T05:16:17;18.40;99.90
15103;DHT22;7652;53.584;9.998;2023-09-07T05:19:40;18.40;99.90
15103;DHT22;7652;53.584;9.998;2023-09-07T05:23:03;18.40;99.90
15103;DHT22;7652;53.584;9.998;2023-09-07T05:26:25;18.40;99.90
15103;DHT22;7652;53.584;9.998;2023-09-07T05:29:46;18.40;99.90
15103;DHT22;7652;53.584;9.998;2023-09-07T05:33:09;18.40;99.90
15103;DHT22;7652;53.584;9.998;2023-09-07T05:36:31;18.50;99.90
15103;DHT22;7652;53.584;9.998;2023-09-07T05:39:53;18.50;99.90
15103;DHT22;7652;53.584;9.998;2023-09-07T05:43:15;18.50;99.90
15103;DHT22;7652;53.584;9.998;2023-09-07T05:46:36;18.60;99.90
15103;DHT22;7652;53.584;9.998;2023-09-07T05:49:58;18.60;99.90
15103;DHT22;7652;53.584;9.998;2023-09-07T05:53:21;18.60;99.90
15103;DHT22;7652;53.584;9.998;2023-09-07T05:56:44;18.70;99.90
15103;DHT22;7652;53.584;9.998;2023-09-07T06:00:07;18.80;99.90
15103;DHT22;7652;53.584;9.998;2023-09-07T06:03:28;18.80;99.90
15103;DHT22;7652;53.584;9.998;2023-09-07T06:06:50;18.80;99.90
15103;DHT22;7652;53.584;9.998;2023-09-07T06:10:13;18.90;99.90
15103;DHT22;7652;53.584;9.998;2023-09-07T06:13:35;19.00;99.90
15103;DHT22;7652;53.584;9.998;2023-09-07T06:16:56;19.00;99.90
15103;DHT22;7652;53.584;9.998;2023-09-07T06:20:18;19.10;99.90
15103;DHT22;7652;53.584;9.998;2023-09-07T06:23:40;19.20;99.90
15103;DHT22;7652;53.584;9.998;2023-09-07T06:27:04;19.20;99.90
15103;DHT22;7652;53.584;9.998;2023-09-07T06:30:25;19.30;99.90
15103;DHT22;7652;53.584;9.998;2023-09-07T06:33:46;19.40;99.90
15103;DHT22;7652;53.584;9.998;2023-09-07T06:37:08;19.50;99.90
15103;DHT22;7652;53.584;9.998;2023-09-07T06:40:29;19.60;99.90
15103;DHT22;7652;53.584;9.998;2023-09-07T06:43:52;19.60;99.90
15103;DHT22;7652;53.584;9.998;2023-09-07T06:47:14;19.70;99.90
15103;DHT22;7652;53.584;9.998;2023-09-07T06:50:35;19.80;99.90
15103;DHT22;7652;53.584;9.998;2023-09-07T06:53:57;19.90;99.90
15103;DHT22;7652;53.584;9.998;2023-09-07T06:57:19;20.00;99.90
15103;DHT22;7652;53.584;9.998;2023-09-07T07:00:42;20.00;99.90
15103;DHT22;7652;53.584;9.998;2023-09-07T07:04:04;20.20;99.90
15103;DHT22;7652;53.584;9.998;2023-09-07T07:07:26;20.30;99.90
15103;DHT22;7652;53.584;9.998;2023-09-07T07:10:48;20.40;99.90
15103;DHT22;7652;53.584;9.998;2023-09-07T07:14:09;20.50;99.90
15103;DHT22;7652;53.584;9.998;2023-09-07T07:17:33;20.50;99.90
15103;DHT22;7652;53.584;9.998;2023-09-07T07:20:55;20.60;99.90
15103;DHT22;7652;53.584;9.998;2023-09-07T07:24:17;20.70;99.90
15103;DHT22;7652;53.584;9.998;2023-09-07T07:27:39;20.70;99.90
15103;DHT22;7652;53.584;9.998;2023-09-07T07:31:07;20.90;99.90
15103;DHT22;7652;53.584;9.998;2023-09-07T07:34:30;21.00;99.90
15103;DHT22;7652;53.584;9.998;2023-09-07T07:37:52;21.10;99.90
15103;DHT22;7652;53.584;9.998;2023-09-07T07:41:14;21.20;99.90
15103;DHT22;7652;53.584;9.998;2023-09-07T07:44:36;21.30;99.90
15103;DHT22;7652;53.584;9.998;2023-09-07T07:47:57;21.50;99.90
15103;DHT22;7652;53.584;9.998;2023-09-07T07:51:20;21.70;99.90
15103;DHT22;7652;53.584;9.998;2023-09-07T07:54:42;22.20;99.90
15103;DHT22;7652;53.584;9.998;2023-09-07T07:58:03;22.70;99.90
15103;DHT22;7652;53.584;9.998;2023-09-07T08:01:25;23.00;99.90
15103;DHT22;7652;53.584;9.998;2023-09-07T08:04:46;23.20;99.90
15103;DHT22;7652;53.584;9.998;2023-09-07T08:08:09;23.10;99.90
15103;DHT22;7652;53.584;9.998;2023-09-07T08:11:31;23.20;99.90
15103;DHT22;7652;53.584;9.998;2023-09-07T08:14:53;23.40;99.90
15103;DHT22;7652;53.584;9.998;2023-09-07T08:18:15;23.60;99.90
15103;DHT22;7652;53.584;9.998;2023-09-07T08:21:37;23.70;99.90
15103;DHT22;7652;53.584;9.998;2023-09-07T08:25:00;23.80;99.90
15103;DHT22;7652;53.584;9.998;2023-09-07T08:28:22;24.00;99.90
15103;DHT22;7652;53.584;9.998;2023-09-07T08:31:43;24.30;99.90
15103;DHT22;7652;53.584;9.998;2023-09-07T08:35:06;24.60;99.90
15103;DHT22;7652;53.584;9.998;2023-09-07T08:38:29;25.10;99.90
15103;DHT22;7652;53.584;9.998;2023-09-07T08:41:53;26.10;99.90
15103;DHT22;7652;53.584;9.998;2023-09-07T08:45:22;26.40;99.90
15103;DHT22;7652;53.584;9.998;2023-09-07T08:48:47;26.10;99.90
15103;DHT22;7652;53.584;9.998;2023-09-07T08:52:10;25.90;99.90
15103;DHT22;7652;53.584;9.998;2023-09-07T08:55:31;25.70;99.90
15103;DHT22;7652;53.584;9.998;2023-09-07T08:58:55;25.60;99.90
15103;DHT22;7652;53.584;9.998;2023-09-07T09:02:16;25.60;99.90
15103;DHT22;7652;53.584;9.998;2023-09-07T09:05:39;25.50;99.90
15103;DHT22;7652;53.584;9.998;2023-09-07T09:09:01;25.40;99.90
15103;DHT22;7652;53.584;9.998;2023-09-07T09:12:25;25.30;99.90
15103;DHT22;7652;53.584;9.998;2023-09-07T09:15:49;25.40;99.90
15103;DHT22;7652;53.584;9.998;2023-09-07T09:19:10;25.40;99.90
15103;DHT22;7652;53.584;9.998;2023-09-07T09:22:32;25.30;99.90
15103;DHT22;7652;53.584;9.998;2023-09-07T09:25:54;25.40;99.90
15103;DHT22;7652;53.584;9.998;2023-09-07T09:29:16;25.60;99.90
15103;DHT22;7652;53.584;9.998;2023-09-07T09:32:39;25.60;99.90
15103;DHT22;7652;53.584;9.998;2023-09-07T09:36:02;25.70;99.90
15103;DHT22;7652;53.584;9.998;2023-09-07T09:39:24;25.80;99.90
15103;DHT22;7652;53.584;9.998;2023-09-07T09:42:46;25.90;99.90
15103;DHT22;7652;53.584;9.998;2023-09-07T09:46:08;26.00;99.90
15103;DHT22;7652;53.584;9.998;2023-09-07T09:49:32;26.20;99.90
15103;DHT22;7652;53.584;9.998;2023-09-07T09:52:54;26.30;99.90
15103;DHT22;7652;53.584;9.998;2023-09-07T09:56:16;26.30;99.90
15103;DHT22;7652;53.584;9.998;2023-09-07T09:59:38;26.30;99.90
15103;DHT22;7652;53.584;9.998;2023-09-07T10:03:04;26.30;99.90
15103;DHT22;7652;53.584;9.998;2023-09-07T10:06:29;26.30;99.90
15103;DHT22;7652;53.584;9.998;2023-09-07T10:09:51;26.40;99.90
15103;DHT22;7652;53.584;9.998;2023-09-07T10:13:14;26.50;99.90
15103;DHT22;7652;53.584;9.998;2023-09-07T10:16:42;26.50;99.90
15103;DHT22;7652;53.584;9.998;2023-09-07T10:20:06;26.70;99.90
15103;DHT22;7652;53.584;9.998;2023-09-07T10:23:36;27.00;99.90
15103;DHT22;7652;53.584;9.998;2023-09-07T10:26:59;27.20;99.90
15103;DHT22;7652;53.584;9.998;2023-09-07T10:30:21;27.50;99.90
15103;DHT22;7652;53.584;9.998;2023-09-07T10:33:44;27.50;99.90
15103;DHT22;7652;53.584;9.998;2023-09-07T10:37:06;27.70;99.90
15103;DHT22;7652;53.584;9.998;2023-09-07T10:40:31;28.00;99.90
15103;DHT22;7652;53.584;9.998;2023-09-07T10:43:54;28.60;99.90
15103;DHT22;7652;53.584;9.998;2023-09-07T10:47:16;29.20;99.90
15103;DHT22;7652;53.584;9.998;2023-09-07T10:50:45;29.40;99.90
15103;DHT22;7652;53.584;9.998;2023-09-07T10:54:13;29.70;98.60
15103;DHT22;7652;53.584;9.998;2023-09-07T10:57:42;29.70;97.10
15103;DHT22;7652;53.584;9.998;2023-09-07T11:01:04;30.10;97.10
15103;DHT22;7652;53.584;9.998;2023-09-07T11:04:26;30.20;96.70
15103;DHT22;7652;53.584;9.998;2023-09-07T11:07:47;30.50;95.70
15103;DHT22;7652;53.584;9.998;2023-09-07T11:11:09;30.40;94.60
15103;DHT22;7652;53.584;9.998;2023-09-07T11:14:32;30.80;94.70
15103;DHT22;7652;53.584;9.998;2023-09-07T11:17:53;31.40;93.50
15103;DHT22;7652;53.584;9.998;2023-09-07T11:21:15;31.50;92.00
15103;DHT22;7652;53.584;9.998;2023-09-07T11:24:36;32.20;91.80
15103;DHT22;7652;53.584;9.998;2023-09-07T11:27:58;32.40;90.30
15103;DHT22;7652;53.584;9.998;2023-09-07T11:31:21;32.60;88.00
15103;DHT22;7652;53.584;9.998;2023-09-07T11:34:50;32.90;88.90
15103;DHT22;7652;53.584;9.998;2023-09-07T11:38:15;32.70;86.20
15103;DHT22;7652;53.584;9.998;2023-09-07T11:41:36;32.30;87.50
15103;DHT22;7652;53.584;9.998;2023-09-07T11:44:58;32.30;86.80
15103;DHT22;7652;53.584;9.998;2023-09-07T11:48:20;32.40;87.20
15103;DHT22;7652;53.584;9.998;2023-09-07T11:51:42;32.40;87.50
15103;DHT22;7652;53.584;9.998;2023-09-07T11:55:04;32.20;87.30
15103;DHT22;7652;53.584;9.998;2023-09-07T11:58:26;31.90;87.70
15103;DHT22;7652;53.584;9.998;2023-09-07T12:01:50;31.40;88.80
15103;DHT22;7652;53.584;9.998;2023-09-07T12:05:13;31.10;87.90
15103;DHT22;7652;53.584;9.998;2023-09-07T12:08:36;31.40;88.70
15103;DHT22;7652;53.584;9.998;2023-09-07T12:11:58;31.10;89.90
15103;DHT22;7652;53.584;9.998;2023-09-07T12:15:19;31.20;90.00
15103;DHT22;7652;53.584;9.998;2023-09-07T12:18:41;31.20;90.10
15103;DHT22;7652;53.584;9.998;2023-09-07T12:22:04;31.50;86.60
15103;DHT22;7652;53.584;9.998;2023-09-07T12:25:25;32.30;86.50
15103;DHT22;7652;53.584;9.998;2023-09-07T12:28:46;32.10;84.50
15103;DHT22;7652;53.584;9.998;2023-09-07T12:32:08;32.40;85.20
15103;DHT22;7652;53.584;9.998;2023-09-07T12:35:29;33.10;84.20
15103;DHT22;7652;53.584;9.998;2023-09-07T12:38:52;33.50;81.80
15103;DHT22;7652;53.584;9.998;2023-09-07T12:42:14;34.40;79.90
15103;DHT22;7652;53.584;9.998;2023-09-07T12:45:36;35.10;74.60
15103;DHT22;7652;53.584;9.998;2023-09-07T12:48:59;35.30;71.90
15103;DHT22;7652;53.584;9.998;2023-09-07T12:52:20;36.90;69.40
15103;DHT22;7652;53.584;9.998;2023-09-07T12:55:43;37.50;64.80
15103;DHT22;7652;53.584;9.998;2023-09-07T12:59:05;37.80;61.60
15103;DHT22;7652;53.584;9.998;2023-09-07T13:02:26;37.40;62.50
15103;DHT22;7652;53.584;9.998;2023-09-07T13:05:48;37.40;60.80
15103;DHT22;7652;53.584;9.998;2023-09-07T13:09:10;37.60;60.20
15103;DHT22;7652;53.584;9.998;2023-09-07T13:12:33;38.50;60.00
15103;DHT22;7652;53.584;9.998;2023-09-07T13:15:55;38.50;58.00
15103;DHT22;7652;53.584;9.998;2023-09-07T13:19:16;38.80;57.20
15103;DHT22;7652;53.584;9.998;2023-09-07T13:22:38;37.30;58.60
15103;DHT22;7652;53.584;9.998;2023-09-07T13:26:02;35.90;59.20
15103;DHT22;7652;53.584;9.998;2023-09-07T13:29:25;34.70;61.90
15103;DHT22;7652;53.584;9.998;2023-09-07T13:32:47;33.20;65.30
15103;DHT22;7652;53.584;9.998;2023-09-07T13:36:10;32.30;68.30
15103;DHT22;7652;53.584;9.998;2023-09-07T13:39:31;32.00;69.60
15103;DHT22;7652;53.584;9.998;2023-09-07T13:42:53;31.70;71.90
15103;DHT22;7652;53.584;9.998;2023-09-07T13:46:16;31.40;71.50
15103;DHT22;7652;53.584;9.998;2023-09-07T13:49:38;31.40;71.10
15103;DHT22;7652;53.584;9.998;2023-09-07T13:53:00;31.20;70.20
15103;DHT22;7652;53.584;9.998;2023-09-07T13:56:22;30.80;72.60
15103;DHT22;7652;53.584;9.998;2023-09-07T13:59:43;30.60;72.50
15103;DHT22;7652;53.584;9.998;2023-09-07T14:03:06;30.60;72.40
15103;DHT22;7652;53.584;9.998;2023-09-07T14:06:27;30.70;72.60
15103;DHT22;7652;53.584;9.998;2023-09-07T14:09:49;30.70;72.40
15103;DHT22;7652;53.584;9.998;2023-09-07T14:13:10;30.60;71.70
15103;DHT22;7652;53.584;9.998;2023-09-07T14:16:32;30.70;72.90
15103;DHT22;7652;53.584;9.998;2023-09-07T14:19:55;30.50;71.60
15103;DHT22;7652;53.584;9.998;2023-09-07T14:23:16;30.20;72.70
15103;DHT22;7652;53.584;9.998;2023-09-07T14:26:38;30.30;74.30
15103;DHT22;7652;53.584;9.998;2023-09-07T14:29:59;30.40;74.50
15103;DHT22;7652;53.584;9.998;2023-09-07T14:33:21;30.20;72.50
15103;DHT22;7652;53.584;9.998;2023-09-07T14:36:44;30.20;73.80
15103;DHT22;7652;53.584;9.998;2023-09-07T14:40:06;30.20;74.40
15103;DHT22;7652;53.584;9.998;2023-09-07T14:43:28;30.10;73.90
15103;DHT22;7652;53.584;9.998;2023-09-07T14:46:50;30.00;74.20
15103;DHT22;7652;53.584;9.998;2023-09-07T14:50:12;29.80;74.40
15103;DHT22;7652;53.584;9.998;2023-09-07T14:53:35;29.70;74.60
15103;DHT22;7652;53.584;9.998;2023-09-07T14:56:56;29.70;74.40
15103;DHT22;7652;53.584;9.998;2023-09-07T15:00:18;29.60;75.10
15103;DHT22;7652;53.584;9.998;2023-09-07T15:03:39;29.60;75.10
15103;DHT22;7652;53.584;9.998;2023-09-07T15:07:01;29.60;74.60
15103;DHT22;7652;53.584;9.998;2023-09-07T15:10:24;29.60;75.50
15103;DHT22;7652;53.584;9.998;2023-09-07T15:13:48;29.50;76.30
15103;DHT22;7652;53.584;9.998;2023-09-07T15:17:11;29.60;76.50
15103;DHT22;7652;53.584;9.998;2023-09-07T15:20:33;29.60;76.00
15103;DHT22;7652;53.584;9.998;2023-09-07T15:23:55;29.50;76.30
15103;DHT22;7652;53.584;9.998;2023-09-07T15:27:17;29.50;74.90
15103;DHT22;7652;53.584;9.998;2023-09-07T15:30:39;29.30;75.70
15103;DHT22;7652;53.584;9.998;2023-09-07T15:34:01;29.30;76.00
15103;DHT22;7652;53.584;9.998;2023-09-07T15:37:22;29.20;76.10
15103;DHT22;7652;53.584;9.998;2023-09-07T15:40:44;29.20;77.20
15103;DHT22;7652;53.584;9.998;2023-09-07T15:44:09;29.20;78.20
15103;DHT22;7652;53.584;9.998;2023-09-07T15:47:31;29.10;76.90
15103;DHT22;7652;53.584;9.998;2023-09-07T15:50:54;28.90;75.70
15103;DHT22;7652;53.584;9.998;2023-09-07T15:54:16;28.80;76.20
15103;DHT22;7652;53.584;9.998;2023-09-07T15:57:37;28.80;77.40
15103;DHT22;7652;53.584;9.998;2023-09-07T16:01:00;28.80;76.80
15103;DHT22;7652;53.584;9.998;2023-09-07T16:04:22;28.70;77.10
15103;DHT22;7652;53.584;9.998;2023-09-07T16:07:44;28.70;77.50
15103;DHT22;7652;53.584;9.998;2023-09-07T16:11:07;28.60;79.30
15103;DHT22;7652;53.584;9.998;2023-09-07T16:14:29;28.60;77.80
15103;DHT22;7652;53.584;9.998;2023-09-07T16:17:52;28.60;77.10
15103;DHT22;7652;53.584;9.998;2023-09-07T16:21:13;28.50;77.20
15103;DHT22;7652;53.584;9.998;2023-09-07T16:24:35;28.50;77.20
15103;DHT22;7652;53.584;9.998;2023-09-07T16:27:57;28.40;77.30
15103;DHT22;7652;53.584;9.998;2023-09-07T16:31:19;28.40;77.50
15103;DHT22;7652;53.584;9.998;2023-09-07T16:34:42;28.30;77.60
15103;DHT22;7652;53.584;9.998;2023-09-07T16:38:04;28.30;78.30
15103;DHT22;7652;53.584;9.998;2023-09-07T16:41:25;28.20;79.10
15103;DHT22;7652;53.584;9.998;2023-09-07T16:44:50;28.10;79.20
15103;DHT22;7652;53.584;9.998;2023-09-07T16:48:11;28.00;79.70
15103;DHT22;7652;53.584;9.998;2023-09-07T16:51:34;28.00;80.40
15103;DHT22;7652;53.584;9.998;2023-09-07T16:54:56;27.90;81.80
15103;DHT22;7652;53.584;9.998;2023-09-07T16:58:17;27.80;82.70
15103;DHT22;7652;53.584;9.998;2023-09-07T17:01:41;27.80;84.80
15103;DHT22;7652;53.584;9.998;2023-09-07T17:05:03;27.60;86.20
15103;DHT22;7652;53.584;9.998;2023-09-07T17:08:26;27.50;84.40
15103;DHT22;7652;53.584;9.998;2023-09-07T17:11:48;27.40;87.20
15103;DHT22;7652;53.584;9.998;2023-09-07T17:15:10;27.30;89.30
15103;DHT22;7652;53.584;9.998;2023-09-07T17:18:32;27.20;87.00
15103;DHT22;7652;53.584;9.998;2023-09-07T17:21:54;27.10;88.80
15103;DHT22;7652;53.584;9.998;2023-09-07T17:25:17;26.90;89.70
15103;DHT22;7652;53.584;9.998;2023-09-07T17:28:39;26.90;89.70
15103;DHT22;7652;53.584;9.998;2023-09-07T17:32:00;26.80;91.10
15103;DHT22;7652;53.584;9.998;2023-09-07T17:35:23;26.70;91.60
15103;DHT22;7652;53.584;9.998;2023-09-07T17:38:45;26.60;92.10
15103;DHT22;7652;53.584;9.998;2023-09-07T17:42:07;26.50;92.80
15103;DHT22;7652;53.584;9.998;2023-09-07T17:45:29;26.40;93.80
15103;DHT22;7652;53.584;9.998;2023-09-07T17:48:51;26.20;94.60
15103;DHT22;7652;53.584;9.998;2023-09-07T17:52:12;26.10;96.60
15103;DHT22;7652;53.584;9.998;2023-09-07T17:55:34;25.90;98.10
15103;DHT22;7652;53.584;9.998;2023-09-07T17:58:56;25.80;98.70
15103;DHT22;7652;53.584;9.998;2023-09-07T18:02:19;25.70;99.90
15103;DHT22;7652;53.584;9.998;2023-09-07T18:05:42;25.50;99.90
15103;DHT22;7652;53.584;9.998;2023-09-07T18:09:04;25.40;99.90
15103;DHT22;7652;53.584;9.998;2023-09-07T18:12:27;25.40;99.90
15103;DHT22;7652;53.584;9.998;2023-09-07T18:15:49;25.20;99.90
15103;DHT22;7652;53.584;9.998;2023-09-07T18:19:11;25.10;99.90
15103;DHT22;7652;53.584;9.998;2023-09-07T18:22:33;25.00;99.90
15103;DHT22;7652;53.584;9.998;2023-09-07T18:25:55;24.90;99.90
15103;DHT22;7652;53.584;9.998;2023-09-07T18:29:17;24.70;99.90
15103;DHT22;7652;53.584;9.998;2023-09-07T18:32:40;24.40;99.90
15103;DHT22;7652;53.584;9.998;2023-09-07T18:36:02;24.30;99.90
15103;DHT22;7652;53.584;9.998;2023-09-07T18:39:23;24.20;99.90
15103;DHT22;7652;53.584;9.998;2023-09-07T18:42:45;24.20;99.90
15103;DHT22;7652;53.584;9.998;2023-09-07T18:46:07;24.10;99.90
15103;DHT22;7652;53.584;9.998;2023-09-07T18:49:30;24.00;99.90
15103;DHT22;7652;53.584;9.998;2023-09-07T18:52:51;24.00;99.90
15103;DHT22;7652;53.584;9.998;2023-09-07T18:56:13;23.90;99.90
15103;DHT22;7652;53.584;9.998;2023-09-07T18:59:35;23.90;99.90
15103;DHT22;7652;53.584;9.998;2023-09-07T19:02:57;23.80;99.90
15103;DHT22;7652;53.584;9.998;2023-09-07T19:06:20;23.80;99.90
15103;DHT22;7652;53.584;9.998;2023-09-07T19:09:42;23.70;99.90
15103;DHT22;7652;53.584;9.998;2023-09-07T19:13:03;23.70;99.90
15103;DHT22;7652;53.584;9.998;2023-09-07T19:16:25;23.60;99.90
15103;DHT22;7652;53.584;9.998;2023-09-07T19:19:48;23.60;99.90
15103;DHT22;7652;53.584;9.998;2023-09-07T19:23:11;23.40;99.90
15103;DHT22;7652;53.584;9.998;2023-09-07T19:26:33;23.30;99.90
15103;DHT22;7652;53.584;9.998;2023-09-07T19:29:55;23.30;99.90
15103;DHT22;7652;53.584;9.998;2023-09-07T19:33:19;23.30;99.90
15103;DHT22;7652;53.584;9.998;2023-09-07T19:36:41;23.20;99.90
15103;DHT22;7652;53.584;9.998;2023-09-07T19:40:05;23.10;99.90
15103;DHT22;7652;53.584;9.998;2023-09-07T19:43:27;23.00;99.90
15103;DHT22;7652;53.584;9.998;2023-09-07T19:46:48;23.00;99.90
15103;DHT22;7652;53.584;9.998;2023-09-07T19:50:10;23.00;99.90
15103;DHT22;7652;53.584;9.998;2023-09-07T19:53:32;23.00;99.90
15103;DHT22;7652;53.584;9.998;2023-09-07T19:56:56;22.90;99.90
15103;DHT22;7652;53.584;9.998;2023-09-07T20:00:18;22.80;99.90
15103;DHT22;7652;53.584;9.998;2023-09-07T20:03:41;22.90;99.90
15103;DHT22;7652;53.584;9.998;2023-09-07T20:07:04;22.80;99.90
15103;DHT22;7652;53.584;9.998;2023-09-07T20:10:26;22.80;99.90
15103;DHT22;7652;53.584;9.998;2023-09-07T20:13:49;22.70;99.90
15103;DHT22;7652;53.584;9.998;2023-09-07T20:17:10;22.70;99.90
15103;DHT22;7652;53.584;9.998;2023-09-07T20:20:32;22.60;99.90
15103;DHT22;7652;53.584;9.998;2023-09-07T20:23:55;22.60;99.90
15103;DHT22;7652;53.584;9.998;2023-09-07T20:27:17;22.50;99.90
15103;DHT22;7652;53.584;9.998;2023-09-07T20:30:39;22.40;99.90
15103;DHT22;7652;53.584;9.998;2023-09-07T20:34:01;22.40;99.90
15103;DHT22;7652;53.584;9.998;2023-09-07T20:37:22;22.40;99.90
15103;DHT22;7652;53.584;9.998;2023-09-07T20:40:44;22.30;99.90
15103;DHT22;7652;53.584;9.998;2023-09-07T20:44:05;22.20;99.90
15103;DHT22;7652;53.584;9.998;2023-09-07T20:47:28;22.20;99.90
15103;DHT22;7652;53.584;9.998;2023-09-07T20:50:49;22.20;99.90
15103;DHT22;7652;53.584;9.998;2023-09-07T20:54:11;22.10;99.90
15103;DHT22;7652;53.584;9.998;2023-09-07T20:57:32;22.00;99.90
15103;DHT22;7652;53.584;9.998;2023-09-07T21:00:54;22.00;99.90
15103;DHT22;7652;53.584;9.998;2023-09-07T21:04:18;22.00;99.90
15103;DHT22;7652;53.584;9.998;2023-09-07T21:07:40;22.00;99.90
15103;DHT22;7652;53.584;9.998;2023-09-07T21:11:01;21.80;99.90
15103;DHT22;7652;53.584;9.998;2023-09-07T21:14:24;21.80;99.90
15103;DHT22;7652;53.584;9.998;2023-09-07T21:17:45;21.70;99.90
15103;DHT22;7652;53.584;9.998;2023-09-07T21:21:08;21.70;99.90
15103;DHT22;7652;53.584;9.998;2023-09-07T21:24:29;21.60;99.90
15103;DHT22;7652;53.584;9.998;2023-09-07T21:27:51;21.60;99.90
15103;DHT22;7652;53.584;9.998;2023-09-07T21:31:12;21.60;99.90
15103;DHT22;7652;53.584;9.998;2023-09-07T21:34:34;21.60;99.90
15103;DHT22;7652;53.584;9.998;2023-09-07T21:37:57;21.60;99.90